Stewart Information Services (STC) Latest Bloomsberg Price


Mffais Ranking #148 Overall / #1 Industry
Industry: Mortgage Finance

Number of Companies: 106 (Ranking #1580 Overall/#18 Industry)
Inflow: $ 174,605 (K) (Ranking #673 Overall/#3 Industry)
Outflow: $ -105,287 (K)
Mffais Flow: $ 69,318 (K) (Ranking #148 Overall/#1 Industry)


Receive a FREE weekly executive review of stocks moving into the top 10, taking the top industy spot or moving up within their industry. Sent directly to your Inbox every Saturday. Sign up today and get last week's review immediately sent to you.

We value and respect your privacy. Please read our Terms and Conditions which states our firm commitment to your privacy. Your email address will not be shared with a third party, nor will it be sold or used for purposes other than subscription for the weekly review.

Owner CPOR Shares Action Qty Chg Invested (K) Total Current Value (K)
Starboard Value Lp 2016-09-30 2,315,000 New Holding 2,315,000 $ 99,545 $ 99,545
Mig Capital Llc 2016-09-30 377,000 New Holding 377,000 $ 16,211 $ 16,211
Roystone Capital Management Lp 2016-09-30 249,000 New Holding 249,000 $ 10,707 $ 10,707
Numina Capital Management Llc 2016-09-30 178,531 New Holding 178,531 $ 7,676 $ 7,676
Guardian Point Capital Lp 2016-09-30 260,000 Added More 175,000 $ 7,525 $ 11,180
13d Management Llc 2016-09-30 160,306 New Holding 160,306 $ 6,893 $ 6,893
Thrivent Financial For Lutherans 2016-09-30 136,840 Added More 125,490 $ 5,396 $ 5,884
Kavi Asset Management Lp 2016-09-30 326,000 Added More 106,000 $ 4,558 $ 14,018
Perkins Investment Management Llc 2016-09-30 252,296 Added More 69,836 $ 3,002 $ 10,848
Northern Trust Corp 2016-09-30 401,299 Added More 57,293 $ 2,463 $ 17,255
Secor Capital Advisors Lp 2016-09-30 52,060 New Holding 52,060 $ 2,238 $ 2,238
Martingale Asset Management L P 2016-09-30 63,397 Added More 43,688 $ 1,878 $ 2,726
Bessemer Group Inc 2016-09-30 32,800 New Holding 32,800 $ 1,410 $ 1,410
Gsa Capital Partners Llp 2016-09-30 25,025 New Holding 25,025 $ 1,076 $ 1,076
Legal General Group Plc 2016-09-30 19,403 Added More 15,797 $ 679 $ 834
Dynamic Technology Lab Private Ltd 2016-09-30 11,323 New Holding 11,323 $ 486 $ 486
Castleark Management Llc 2016-09-30 163,882 Added More 10,964 $ 471 $ 7,046
Simplex Trading Llc 2016-09-30 10,963 New Holding 10,963 $ 471 $ 471
Jane Street Group Llc 2016-09-30 8,280 New Holding 8,280 $ 356 $ 356
Stevens Capital Management Lp 2016-09-30 7,249 New Holding 7,249 $ 311 $ 311
Integre Asset Management Llc 2016-09-30 7,217 New Holding 7,217 $ 310 $ 310
Tudor Investment Corp Et Al 2016-09-30 6,700 New Holding 6,700 $ 288 $ 288
Rhumbline Advisers 2016-09-30 40,582 Added More 4,250 $ 182 $ 1,745
Sg Americas Securities Llc 2016-09-30 3,714 New Holding 3,714 $ 159 $ 159
Cubist Systematic Strategies Llc 2016-09-30 1,343 New Holding 1,343 $ 57 $ 57
Advisor Group Inc 2016-09-30 1,304 New Holding 1,304 $ 56 $ 56
Clearline Capital Lp 2016-09-30 20,831 Added More 1,280 $ 55 $ 895
Parametric Portfolio Associates Llc 2016-09-30 24,129 Added More 801 $ 34 $ 1,037
Dalton Greiner Hartman Maher Co 2016-09-30 35,910 Added More 723 $ 31 $ 1,544
Pacad Investment Ltd 2016-09-30 500 New Holding 500 $ 21 $ 21
California State Teachers Retirement System 2016-09-30 48,413 Added More 500 $ 21 $ 2,081
Mason Street Advisors Llc 2016-09-30 4,811 Added More 246 $ 10 $ 206
Comerica Bank 2016-09-30 23,539 Added More 225 $ 9 $ 1,012
Zurcher Kantonalbank Zurich Cantonalbank 2016-09-30 671 Added More 135 $ 5 $ 28
Sunbelt Securities Inc 2016-09-30 5,813 Added More 38 $ 1 $ 249
Msi Financial Services Inc 2016-09-30 10 New Holding 10 $ 0 $ 0
Pinebridge Investments L P 2016-09-30 2,971 Added More 9 $ 0 $ 127
Swiss National Bank 2016-09-30 37,400 No Change 0 $ 0 $ 1,608
Us Bancorp De 2016-09-30 77 No Change 0 $ 0 $ 3
New York State Teachers Retirement System 2016-09-30 66,658 No Change 0 $ 0 $ 2,866
Teachers Retirement System Of The State Of Kentucky 2016-09-30 8,200 No Change 0 $ 0 $ 352
Capstone Asset Management Co 2016-09-30 9,413 No Change 0 $ 0 $ 404
Nisa Investment Advisors Llc 2016-09-30 11,500 No Change 0 $ 0 $ 494
Teachers Advisors Inc 2016-09-30 50,579 No Change 0 $ 0 $ 2,174
Mufg Americas Holdings Corp 2016-09-30 273 No Change 0 $ 0 $ 11
First Quadrant L P Ca 2016-09-30 7,000 No Change 0 $ 0 $ 301
Icon Advisers Inc Co 2016-09-30 28,100 No Change 0 $ 0 $ 1,208
Raymond James Associates 2016-09-30 7,600 No Change 0 $ 0 $ 326
Bridgeway Capital Management Inc 2016-09-30 155,500 No Change 0 $ 0 $ 6,686
Rbf Capital Llc 2016-09-30 80,000 No Change 0 $ 0 $ 3,440
Blackrock Inc 2016-09-30 5,812 No Change 0 $ 0 $ 249
State Of Alaska Department Of Revenue 2016-09-30 1,740 No Change 0 $ 0 $ 74
Public Sector Pension Investment Board 2016-09-30 16,603 No Change 0 $ 0 $ 713
Envestnet Asset Management Inc 2016-09-30 2,499 No Change 0 $ 0 $ 107
Ancora Advisors Llc 2016-09-30 88,300 No Change 0 $ 0 $ 3,796
Ls Investment Advisors Llc 2016-09-30 842 No Change 0 $ 0 $ 36
Nfc Investments Llc 2016-09-30 40,000 No Change 0 $ 0 $ 1,720
Creative Planning 2016-09-30 10 No Change 0 $ 0 $ 0
Foundation Asset Management Lp 2016-09-30 1,310,850 No Change 0 $ 0 $ 56,366
State Of Tennessee Treasury Department 2016-09-30 18,613 No Change 0 $ 0 $ 800
Gemmer Asset Management Llc 2016-09-30 187 No Change 0 $ 0 $ 8
Quadrant Capital Group Llc 2016-09-30 34 No Change 0 $ 0 $ 1
Zions Bancorporation 2016-09-30 0 Sold All -1 $ -0 $ 0
Advisors Asset Management Inc 2016-09-30 7,022 Sold Some -8 $ -0 $ 301
American International Group Inc 2016-09-30 17,087 Sold Some -9 $ -0 $ 734
Sei Investments Co 2016-09-30 321 Sold Some -18 $ -0 $ 13
Texas Permanent School Fund 2016-09-30 17,804 Sold Some -51 $ -2 $ 765
Independent Portfolio Consultants Inc 2016-09-30 230 Sold Some -55 $ -2 $ 9
Arizona State Retirement System 2016-09-30 12,067 Sold Some -100 $ -4 $ 518
Pnc Financial Services Group Inc 2016-09-30 0 Sold All -106 $ -4 $ 0
Granite Investment Partners Llc 2016-09-30 205,097 Sold Some -175 $ -7 $ 8,819
Guggenheim Capital Llc 2016-09-30 22,952 Sold Some -198 $ -8 $ 986
Walleye Trading Llc 2016-09-30 0 Sold All -200 $ -8 $ 0
Blackrock Investment Management Llc 2016-09-30 104,402 Sold Some -269 $ -11 $ 4,489
Cutler Group Lp 2016-09-30 10 Sold Some -301 $ -12 $ 0
Ladenburg Thalmann Financial Services Inc 2016-09-30 227 Sold Some -304 $ -13 $ 9
Nationwide Fund Advisors 2016-09-30 139,214 Sold Some -525 $ -22 $ 5,986
Alpha Windward Llc 2016-09-30 9,540 Sold Some -1,440 $ -61 $ 410
Essex Investment Management Co Llc 2016-09-30 27,853 Sold Some -1,594 $ -68 $ 1,197
Jacobs Levy Equity Management Inc 2016-09-30 5,520 Sold Some -1,900 $ -81 $ 237
Davenport Co Llc 2016-09-30 8,550 Sold Some -2,300 $ -98 $ 367
Teacher Retirement System Of Texas 2016-09-30 0 Sold All -2,885 $ -124 $ 0
Tower Research Capital Llc Trc 2016-09-30 0 Sold All -2,888 $ -124 $ 0
Profund Advisors Llc 2016-09-30 4,688 Sold Some -3,010 $ -129 $ 201
Reinhart Partners Inc 2016-09-30 80,152 Sold Some -6,200 $ -266 $ 3,446
Dupont Capital Management Corp 2016-09-30 29,604 Sold Some -6,618 $ -284 $ 1,272
Ironbridge Capital Management Lp 2016-09-30 174,320 Sold Some -7,300 $ -313 $ 7,495
Shinko Asset Management Co Ltd 2016-09-30 32,286 Sold Some -11,902 $ -511 $ 1,388
Fisher Asset Management Llc 2016-09-30 32,286 Sold Some -11,902 $ -511 $ 1,388
Kcg Holdings Inc 2016-09-30 0 Sold All -14,174 $ -609 $ 0
Adirondack Research Management Inc 2016-09-30 66,833 Sold Some -14,255 $ -612 $ 2,873
Dimensional Fund Advisors Lp 2016-09-30 1,768,813 Sold Some -18,464 $ -793 $ 76,058
Emerald Acquisition Ltd 2016-09-30 45,721 Sold Some -24,960 $ -1,073 $ 1,966
Menta Capital Llc 2016-09-30 0 Sold All -37,420 $ -1,609 $ 0
First Pacific Advisors Llc 2016-09-30 0 Sold All -44,283 $ -1,904 $ 0
Eaton Vance Management 2016-09-30 128,809 Sold Some -47,170 $ -2,028 $ 5,538
Maltese Capital Management Llc 2016-09-30 0 Sold All -50,000 $ -2,150 $ 0
Brandywine Global Investment Management Llc 2016-09-30 0 Sold All -63,923 $ -2,748 $ 0
New York State Common Retirement Fund 2016-09-30 67,094 Sold Some -70,118 $ -3,015 $ 2,885
Bulldog Investors Llc 2016-09-30 1,019,318 Sold Some -110,882 $ -4,767 $ 43,830
Thompson Siegel Walmsley Llc 2016-09-30 649,190 Sold Some -137,148 $ -5,897 $ 27,915
Cooke Bieler Lp 2016-09-30 197,990 Sold Some -141,766 $ -6,095 $ 8,513
Lombardia Capital Partners Llc 2016-09-30 166,217 Sold Some -221,176 $ -9,510 $ 7,147
Newtyn Management Llc 2016-09-30 0 Sold All -400,000 $ -17,200 $ 0
Three Corner Global Investors Lp 2016-09-30 0 Sold All -423,500 $ -18,210 $ 0
Basswood Capital Management L L C 2016-09-30 309,725 Sold Some -567,040 $ -24,382 $ 13,318